Terminal Aerodrome Forecast
Issued by NWS

Home | Current Version | Previous Version | Text Only | Print | Product List | Glossary On
Versions: 1 2 3 4 5 6 7 8 9 10 11 12 13 14 15 16 17 18
946
FTUS44 KEPZ 312334
TAFTCS
TAF
KTCS 312334Z 0100/0124 18008KT P6SM VCSH BKN045 BKN090 BKN120
     FM010800 25006KT P6SM VCSH BKN040 BKN080
     FM011200 36007KT P6SM BKN040 OVC080
     FM011600 03007KT P6SM SCT040 SCT080 BKN120=

USA.gov is the U.S. government's official web portal to all federal, state and local government web resources and services.